Woodford, Illinois
Current Conditions -  °F | °C
As of 11:35 AM on Monday 22 Dec 2014 (Local Time) from KC75 Reporting Station
Light Rain Light Rain  
Wind Chill: 29°   Ceiling: 800
Heat Index: 36°   Visibility: 3mi
Dew Point: 34°   Wind: 9mph
Humidity: 93%   Direction: 110°ESE
Pressure: 29.72"   Gusts: NA
Location:  40.8848°N, 89.0396°W
Report Text: KC75 221735Z AUTO 11008KT 3SM -RA OVC008 02/01 A2972 RMK AO2 P0001 T00200010
Loading
Personal Weather Stations






























Interactive Weather Map New forecast layout! Learn more

10-Day Weather Forecast

Advertisements
Track Severe Weather on mobile